Flight Track Log - Related Links

Times and Time Zones

All times are in EDT time to prevent confusion due to time zone crossing. See the EGF4039 flight status page for this flight to view local times or setup timezone preferences in your user account.

Time Position Orientation Groundspeed Altitude Reporting Facility
EDT Latitude Longitude Course Direction KTS MPH feet Rate Location/Type
Fri 05:00:57 PM 42.5397 -92.3669 97° East 153 176 2,700  Level Chicago Center
Fri 05:01:59 PM 42.5328 -92.2967 98° East 198 228 5,500 2,371 Climbing Chicago Center
Fri 05:03:01 PM 42.5261 -92.1981 95° East 244 281 7,600 2,371 Climbing Chicago Center
Fri 05:04:00 PM 42.4991 -91.8564 97° East  Level FlightAware Approximate
Fri 05:04:03 PM 42.5169 -92.0867 96° East 278 320 10,400  Level Chicago Center
Fri 05:05:00 PM 42.4867 -91.7202 97° East  Level FlightAware Approximate
Fri 05:05:05 PM 42.5078 -91.9606 96° East 310 357 12,300  Level Chicago Center
Fri 05:06:00 PM 42.4799 -91.5974 97° East  Level FlightAware Approximate
Fri 05:06:07 PM 42.4947 -91.7997 96° East 354 407 15,300  Level Chicago Center
Fri 05:07:10 PM 42.4839 -91.6619 96° East 374 430 17,200 1,632 Climbing Chicago Center
Fri 05:08:12 PM 42.4717 -91.5172 96° East 388 447 18,700 1,548 Climbing Chicago Center
Fri 05:09:14 PM 42.4592 -91.3653 96° East 408 470 20,400 1,790 Climbing Chicago Center
Fri 05:10:16 PM 42.4428 -91.1786 97° East 422 486 22,400 1,258 Climbing Chicago Center
Fri 05:11:18 PM 42.4281 -91.0117 97° East 447 514 23,000 290 Climbing Chicago Center
Fri 05:12:20 PM 42.4122 -90.8342 97° East 476 548 23,000  Level Chicago Center
Fri 05:13:22 PM 42.4047 -90.6583 93° East 473 544 23,000  Level Chicago Center
Fri 05:14:24 PM 42.4267 -90.4547 82° East 463 533 23,000  Level Chicago Center
Fri 05:15:26 PM 42.4444 -90.2817 82° East 467 537 23,000  Level Chicago Center
Fri 05:16:28 PM 42.4408 -90.1031 92° East 479 551 23,000  Level Chicago Center
Fri 05:17:30 PM 42.4328 -89.9008 93° East 483 556 23,000  Level Chicago Center
Fri 05:18:33 PM 42.4264 -89.7197 93° East 483 556 23,000 -672 Level Chicago Center
Fri 05:19:35 PM 42.4183 -89.5397 93° East 480 552 21,600 -2,081 Descending Chicago Center
Fri 05:20:37 PM 42.4128 -89.3681 92° East 463 533 18,700 -2,710 Descending Chicago Center
Fri 05:21:39 PM 42.4050 -89.2067 94° East 436 502 16,000 -2,468 Descending Chicago Center
Fri 05:22:41 PM 42.3983 -89.0247 93° East 418 481 13,600 -2,323 Descending Chicago Center
Fri 05:23:43 PM 42.3917 -88.8758 93° East 400 460 11,200 -1,548 Descending Chicago Center
Fri 05:24:45 PM 42.3856 -88.7350 93° East 381 438 10,400 -629 Descending Chicago Center
Fri 05:25:47 PM 42.3792 -88.6094 94° East 341 392 9,900 -677 Descending Chicago Center
Fri 05:26:49 PM 42.3739 -88.5003 94° East 301 346 9,000 -968 Descending Chicago Center
Fri 05:27:51 PM 42.3017 -88.4333 146° Southeast 296 341 7,900 -960 Descending Chicago Center
Fri 05:28:54 PM 42.2283 -88.4089 166° South 277 319 7,000 -432 Descending Chicago Center
Fri 05:29:56 PM 42.1633 -88.3875 166° South 250 288 7,000  Level Chicago Center
Fri 05:30:58 PM 42.0992 -88.3689 168° South 239 275 7,000 -532 Level Chicago Center
Fri 05:32:00 PM 42.0464 -88.3489 164° South 208 239 5,900 -968 Descending Chicago Center
Fri 05:33:02 PM 41.9814 -88.3289 167° South 200 230 5,000 -581 Descending Chicago Center
Fri 05:34:04 PM 41.9578 -88.2808 123° Southeast 198 228 4,700 -484 Descending Chicago Center
Fri 05:35:06 PM 41.9678 -88.2106 79° East 195 224 4,000 -677 Descending Chicago Center

Login

Don't have an account? Register now (free) for customized features, flight alerts, and more!